Terminal Aerodrome Forecast
Issued by NWS

Current Version | Previous Version | Text Only | Print | Product List | Glossary On
Versions: 1 2 3 4 5 6 7 8 9 10 11 12 13 14 15 16 17 18 19 20 21 22 23 24
000
FTUS43 KABR 061737
TAFPIR
TAF
KPIR 061737Z 0618/0718 35014G22KT 5SM HZ SCT050
     FM070300 VRB04KT 6SM HZ SKC
     FM070800 VRB04KT 3SM BR SKC=

USA.gov is the U.S. government's official web portal to all federal, state and local government web resources and services.